Time;durP1;ratioP1;P1;durP2;ratioP2;P2;SDS_P1;SDS_P2;PMS_P1;PMS_P2;Temp;Humidity;BMP_temperature;BMP_pressure;BME280_temperature;BME280_humidity;BME280_pressure;Samples;Min_cycle;Max_cycle;Signal;HPM_P1;HPM_P2
2023/07/23 00:00:51;;;;;;;;;;;14.70;99.90;;;;;;5046289;28;20339;-49
2023/07/23 00:03:17;;;;;;;;;;;14.70;99.90;;;;;;5046823;28;20381;-50
2023/07/23 00:05:44;;;;;;;;;;;14.70;99.90;;;;;;5052322;28;20390;-47
2023/07/23 00:08:10;;;;;;;;;;;14.70;99.90;;;;;;5052521;28;19916;-49
2023/07/23 00:10:36;;;;;;;;;;;14.70;99.90;;;;;;5043887;28;20435;-49
2023/07/23 00:13:01;;;;;;;;;;;14.70;99.90;;;;;;5043685;28;19917;-49
2023/07/23 00:15:27;;;;;;;;;;;14.70;99.90;;;;;;5052347;28;19921;-50
2023/07/23 00:17:52;;;;;;;;;;;14.70;99.90;;;;;;5051004;28;20134;-48
2023/07/23 00:20:18;;;;;;;;;;;14.70;99.90;;;;;;5046692;28;19948;-49
2023/07/23 00:22:43;;;;;;;;;;;14.70;99.90;;;;;;5052183;28;19963;-47
2023/07/23 00:25:09;;;;;;;;;;;14.70;99.90;;;;;;5046577;28;19916;-47
2023/07/23 00:27:34;;;;;;;;;;;14.70;99.90;;;;;;5051553;28;19928;-49
2023/07/23 00:30:00;;;;;;;;;;;14.70;99.90;;;;;;5052127;28;19921;-47
2023/07/23 00:32:26;;;;;;;;;;;14.70;99.90;;;;;;5052356;28;19916;-49
2023/07/23 00:34:51;;;;;;;;;;;14.70;99.90;;;;;;5043549;28;19924;-49
2023/07/23 00:37:17;;;;;;;;;;;14.70;99.90;;;;;;5051991;28;19928;-47
2023/07/23 00:39:42;;;;;;;;;;;14.70;99.90;;;;;;5051706;28;19917;-49
2023/07/23 00:42:08;;;;;;;;;;;14.70;99.90;;;;;;5051487;28;19917;-47
2023/07/23 00:44:33;;;;;;;;;;;14.70;99.90;;;;;;5051029;28;19920;-51
2023/07/23 00:47:00;;;;;;;;;;;14.70;99.90;;;;;;5051796;28;19927;-48
2023/07/23 00:49:26;;;;;;;;;;;14.80;99.90;;;;;;5051988;28;19920;-50
2023/07/23 00:51:52;;;;;;;;;;;14.70;99.90;;;;;;5051657;28;19931;-49
2023/07/23 00:54:18;;;;;;;;;;;14.80;99.90;;;;;;5050851;28;19967;-49
2023/07/23 00:56:43;;;;;;;;;;;14.80;99.90;;;;;;5050700;28;19917;-48
2023/07/23 00:59:09;;;;;;;;;;;14.80;99.90;;;;;;5051657;28;19943;-49
2023/07/23 01:01:34;;;;;;;;;;;14.80;99.90;;;;;;5051509;28;19917;-51
2023/07/23 01:04:00;;;;;;;;;;;14.80;99.90;;;;;;5051331;28;19917;-49
2023/07/23 01:06:27;;;;;;;;;;;14.80;99.90;;;;;;5050222;28;20450;-49
2023/07/23 01:08:55;;;;;;;;;;;14.80;99.90;;;;;;5051145;28;19932;-49
2023/07/23 01:11:21;;;;;;;;;;;14.70;99.90;;;;;;5050812;28;19917;-49
2023/07/23 01:13:47;;;;;;;;;;;14.80;99.90;;;;;;5051114;28;19917;-49
2023/07/23 01:16:12;;;;;;;;;;;14.70;99.90;;;;;;5050819;28;20396;-47
2023/07/23 01:18:38;;;;;;;;;;;14.80;99.90;;;;;;5051146;28;19925;-48
2023/07/23 01:21:04;;;;;;;;;;;14.80;99.90;;;;;;5051198;28;20174;-48
2023/07/23 01:23:30;;;;;;;;;;;14.80;99.90;;;;;;5050922;28;19917;-49
2023/07/23 01:25:56;;;;;;;;;;;14.70;99.90;;;;;;5050236;28;19917;-47
2023/07/23 01:28:22;;;;;;;;;;;14.70;99.90;;;;;;5051124;28;19924;-49
2023/07/23 01:30:47;;;;;;;;;;;14.70;99.90;;;;;;5050938;28;19928;-48
2023/07/23 01:33:13;;;;;;;;;;;14.70;99.90;;;;;;5050925;28;19938;-49
2023/07/23 01:35:39;;;;;;;;;;;14.70;99.90;;;;;;5057235;28;19927;-48
2023/07/23 01:38:05;;;;;;;;;;;14.70;99.90;;;;;;5050884;28;19920;-49
2023/07/23 01:40:30;;;;;;;;;;;14.70;99.90;;;;;;5050595;28;19964;-49
2023/07/23 01:42:56;;;;;;;;;;;14.60;99.90;;;;;;5050756;28;19924;-49
2023/07/23 01:45:21;;;;;;;;;;;14.60;99.90;;;;;;5049241;28;19917;-50
2023/07/23 01:47:47;;;;;;;;;;;14.60;99.90;;;;;;5049923;28;20412;-48
2023/07/23 01:50:12;;;;;;;;;;;14.60;99.90;;;;;;5049218;28;19975;-51
2023/07/23 01:52:38;;;;;;;;;;;14.60;99.90;;;;;;5050305;28;19916;-51
2023/07/23 01:55:03;;;;;;;;;;;14.60;99.90;;;;;;5049390;28;19917;-48
2023/07/23 01:57:29;;;;;;;;;;;14.60;99.90;;;;;;5050486;28;19923;-48
2023/07/23 01:59:54;;;;;;;;;;;14.60;99.90;;;;;;5050508;28;19916;-49
2023/07/23 02:02:20;;;;;;;;;;;14.60;99.90;;;;;;5050425;28;19917;-50
2023/07/23 02:04:45;;;;;;;;;;;14.60;99.90;;;;;;5055322;28;20277;-50
2023/07/23 02:07:11;;;;;;;;;;;14.60;99.90;;;;;;5049049;28;19994;-48
2023/07/23 02:09:37;;;;;;;;;;;14.60;99.90;;;;;;5049656;28;20406;-51
2023/07/23 02:12:02;;;;;;;;;;;14.50;99.90;;;;;;5050390;28;19939;-49
2023/07/23 02:14:29;;;;;;;;;;;14.50;99.90;;;;;;5050308;28;20389;-48
2023/07/23 02:16:54;;;;;;;;;;;14.60;99.90;;;;;;5049937;28;19966;-52
2023/07/23 02:19:20;;;;;;;;;;;14.60;99.90;;;;;;5049161;28;19916;-49
2023/07/23 02:21:46;;;;;;;;;;;14.60;99.90;;;;;;5050052;28;19917;-47
2023/07/23 02:24:11;;;;;;;;;;;14.60;99.90;;;;;;5049769;28;19920;-49
2023/07/23 02:26:37;;;;;;;;;;;14.60;99.90;;;;;;5050075;28;20011;-51
2023/07/23 02:29:02;;;;;;;;;;;14.60;99.90;;;;;;5050287;28;19925;-51
2023/07/23 02:31:28;;;;;;;;;;;14.60;99.90;;;;;;5050283;28;19917;-49
2023/07/23 02:33:53;;;;;;;;;;;14.60;99.90;;;;;;5050344;28;19920;-50
2023/07/23 02:36:19;;;;;;;;;;;14.60;99.90;;;;;;5050009;28;19916;-51
2023/07/23 02:38:44;;;;;;;;;;;14.60;99.90;;;;;;5049768;28;20369;-49
2023/07/23 02:41:10;;;;;;;;;;;14.60;99.90;;;;;;5051292;28;19921;-51
2023/07/23 02:43:35;;;;;;;;;;;14.60;99.90;;;;;;5048535;28;19924;-51
2023/07/23 02:46:01;;;;;;;;;;;14.60;99.90;;;;;;5049856;28;19936;-47
2023/07/23 02:48:26;;;;;;;;;;;14.60;99.90;;;;;;5049909;28;20476;-50
2023/07/23 02:50:52;;;;;;;;;;;14.60;99.90;;;;;;5049854;28;19928;-49
2023/07/23 02:53:17;;;;;;;;;;;14.60;99.90;;;;;;5049482;28;20302;-48
2023/07/23 02:55:44;;;;;;;;;;;14.60;99.90;;;;;;5049755;28;20303;-50
2023/07/23 02:58:09;;;;;;;;;;;14.60;99.90;;;;;;5049752;28;19916;-49
2023/07/23 03:00:37;;;;;;;;;;;14.60;99.90;;;;;;5049721;28;19916;-50
2023/07/23 03:03:02;;;;;;;;;;;14.60;99.90;;;;;;5049952;28;19921;-48
2023/07/23 03:05:28;;;;;;;;;;;14.70;99.90;;;;;;5049592;28;20174;-49
2023/07/23 03:07:53;;;;;;;;;;;14.60;99.90;;;;;;5049905;28;19917;-51
2023/07/23 03:10:19;;;;;;;;;;;14.60;99.90;;;;;;5053593;28;20021;-48
2023/07/23 03:12:44;;;;;;;;;;;14.70;99.90;;;;;;5053558;28;20069;-50
2023/07/23 03:15:10;;;;;;;;;;;14.70;99.90;;;;;;5053400;28;19917;-49
2023/07/23 03:17:35;;;;;;;;;;;14.70;99.90;;;;;;5053472;28;20023;-50
2023/07/23 03:20:01;;;;;;;;;;;14.70;99.90;;;;;;5053274;28;19917;-47
2023/07/23 03:22:26;;;;;;;;;;;14.70;99.90;;;;;;5052951;28;19917;-48
2023/07/23 03:24:52;;;;;;;;;;;14.70;99.90;;;;;;5053136;28;19940;-49
2023/07/23 03:27:17;;;;;;;;;;;14.70;99.90;;;;;;5053679;28;19928;-49
2023/07/23 03:29:43;;;;;;;;;;;14.70;99.90;;;;;;5053365;28;19921;-48
2023/07/23 03:32:08;;;;;;;;;;;14.70;99.90;;;;;;5053335;28;19916;-49
2023/07/23 03:34:34;;;;;;;;;;;14.70;99.90;;;;;;5053339;28;19918;-52
2023/07/23 03:36:59;;;;;;;;;;;14.70;99.90;;;;;;5052569;28;19927;-48
2023/07/23 03:39:25;;;;;;;;;;;14.70;99.90;;;;;;5053183;28;19970;-48
2023/07/23 03:41:51;;;;;;;;;;;14.70;99.90;;;;;;5053154;28;19920;-49
2023/07/23 03:44:16;;;;;;;;;;;14.70;99.90;;;;;;5053005;28;19925;-49
2023/07/23 03:46:43;;;;;;;;;;;14.70;99.90;;;;;;5052676;28;19917;-48
2023/07/23 03:49:08;;;;;;;;;;;14.80;99.90;;;;;;5052565;28;19921;-47
2023/07/23 03:51:34;;;;;;;;;;;14.70;99.90;;;;;;5051975;28;19923;-49
2023/07/23 03:53:59;;;;;;;;;;;14.70;99.90;;;;;;5057459;28;20342;-47
2023/07/23 03:56:24;;;;;;;;;;;14.70;99.90;;;;;;5051791;28;19916;-47
2023/07/23 03:58:50;;;;;;;;;;;14.70;99.90;;;;;;5051431;28;19917;-50
2023/07/23 04:01:15;;;;;;;;;;;14.70;99.90;;;;;;5051402;28;19916;-47
2023/07/23 04:03:41;;;;;;;;;;;14.70;99.90;;;;;;5051220;28;20015;-49
2023/07/23 04:06:06;;;;;;;;;;;14.70;99.90;;;;;;5051558;28;19920;-48
2023/07/23 04:08:32;;;;;;;;;;;14.70;99.90;;;;;;5052389;28;20454;-48
2023/07/23 04:10:57;;;;;;;;;;;14.70;99.90;;;;;;5052385;28;19920;-47
2023/07/23 04:13:23;;;;;;;;;;;14.70;99.90;;;;;;5052457;28;19917;-50
2023/07/23 04:15:48;;;;;;;;;;;14.70;99.90;;;;;;5052185;28;20381;-49
2023/07/23 04:18:14;;;;;;;;;;;14.70;99.90;;;;;;5052391;28;19943;-49
2023/07/23 04:20:40;;;;;;;;;;;14.70;99.90;;;;;;5051919;28;20026;-49
2023/07/23 04:23:05;;;;;;;;;;;14.70;99.90;;;;;;5051790;28;20519;-50
2023/07/23 04:25:31;;;;;;;;;;;14.70;99.90;;;;;;5052350;28;19916;-47
2023/07/23 04:27:56;;;;;;;;;;;14.70;99.90;;;;;;5052717;28;19924;-49
2023/07/23 04:30:24;;;;;;;;;;;14.70;99.90;;;;;;5052108;28;19920;-48
2023/07/23 04:32:50;;;;;;;;;;;14.70;99.90;;;;;;5052029;28;19982;-50
2023/07/23 04:35:15;;;;;;;;;;;14.70;99.90;;;;;;5051666;28;20344;-47
2023/07/23 04:37:41;;;;;;;;;;;14.70;99.90;;;;;;5051686;28;19917;-49
2023/07/23 04:40:08;;;;;;;;;;;14.70;99.90;;;;;;5052084;28;20559;-49
2023/07/23 04:42:33;;;;;;;;;;;14.70;99.90;;;;;;5067138;28;20003;-49
2023/07/23 04:44:59;;;;;;;;;;;14.80;99.90;;;;;;5051556;28;20007;-51
2023/07/23 04:47:24;;;;;;;;;;;14.70;99.90;;;;;;5051853;28;19967;-55
2023/07/23 04:49:50;;;;;;;;;;;14.70;99.90;;;;;;5051504;28;19964;-51
2023/07/23 04:52:15;;;;;;;;;;;14.80;99.90;;;;;;5051520;28;19928;-49
2023/07/23 04:54:42;;;;;;;;;;;14.80;99.90;;;;;;5051611;28;19916;-47
2023/07/23 04:57:07;;;;;;;;;;;14.80;99.90;;;;;;5051798;28;20019;-49
2023/07/23 04:59:33;;;;;;;;;;;14.80;99.90;;;;;;5053963;28;20004;-49
2023/07/23 05:01:58;;;;;;;;;;;14.80;99.90;;;;;;5051924;28;19917;-49
2023/07/23 05:04:24;;;;;;;;;;;14.80;99.90;;;;;;5053676;28;19970;-48
2023/07/23 05:06:49;;;;;;;;;;;14.90;99.90;;;;;;5049514;28;19926;-47
2023/07/23 05:09:15;;;;;;;;;;;14.90;99.90;;;;;;5050101;28;20281;-49
2023/07/23 05:11:40;;;;;;;;;;;14.90;99.90;;;;;;5050959;28;19925;-49
2023/07/23 05:14:06;;;;;;;;;;;14.90;99.90;;;;;;5051271;28;20011;-48
2023/07/23 05:16:31;;;;;;;;;;;14.90;99.90;;;;;;5051066;28;19916;-48
2023/07/23 05:18:56;;;;;;;;;;;15.00;99.90;;;;;;5051354;28;20385;-49
2023/07/23 05:21:22;;;;;;;;;;;15.00;99.90;;;;;;5050860;28;19923;-47
2023/07/23 05:23:47;;;;;;;;;;;15.00;99.90;;;;;;5051161;28;20309;-49
2023/07/23 05:26:13;;;;;;;;;;;15.00;99.90;;;;;;5051108;28;19963;-47
2023/07/23 05:28:38;;;;;;;;;;;15.10;99.90;;;;;;5050932;28;19939;-50
2023/07/23 05:31:04;;;;;;;;;;;15.10;99.90;;;;;;5050514;28;20400;-49
2023/07/23 05:33:30;;;;;;;;;;;15.10;99.90;;;;;;5050789;28;19924;-49
2023/07/23 05:35:55;;;;;;;;;;;15.10;99.90;;;;;;5050669;28;19917;-49
2023/07/23 05:38:21;;;;;;;;;;;15.20;99.90;;;;;;5050892;28;20381;-49
2023/07/23 05:40:53;;;;;;;;;;;15.20;99.90;;;;;;5050886;28;19921;-49
2023/07/23 05:43:19;;;;;;;;;;;15.20;99.90;;;;;;5050728;28;19971;-47
2023/07/23 05:45:44;;;;;;;;;;;15.20;99.90;;;;;;5050833;28;19921;-49
2023/07/23 05:48:10;;;;;;;;;;;15.30;99.90;;;;;;5050950;28;19924;-49
2023/07/23 05:50:35;;;;;;;;;;;15.40;99.90;;;;;;5050287;28;19924;-49
2023/07/23 05:53:01;;;;;;;;;;;15.30;99.90;;;;;;5050420;28;19917;-49
2023/07/23 05:55:26;;;;;;;;;;;15.40;99.90;;;;;;5048997;28;19963;-48
2023/07/23 05:57:52;;;;;;;;;;;15.40;99.90;;;;;;5050550;28;19992;-48
2023/07/23 06:00:17;;;;;;;;;;;15.50;99.90;;;;;;5051007;28;19921;-49
2023/07/23 06:02:43;;;;;;;;;;;15.50;99.90;;;;;;5050284;28;19917;-47
2023/07/23 06:05:08;;;;;;;;;;;15.60;99.90;;;;;;5049704;28;20293;-50
2023/07/23 06:07:34;;;;;;;;;;;15.60;99.90;;;;;;5050372;28;20019;-49
2023/07/23 06:10:00;;;;;;;;;;;15.70;99.90;;;;;;5059099;28;19924;-48
2023/07/23 06:12:27;;;;;;;;;;;15.70;99.90;;;;;;5048871;28;19923;-50
2023/07/23 06:14:52;;;;;;;;;;;15.70;99.90;;;;;;5049859;28;19921;-49
2023/07/23 06:17:18;;;;;;;;;;;15.70;99.90;;;;;;5050341;28;20369;-48
2023/07/23 06:19:43;;;;;;;;;;;15.80;99.90;;;;;;5049574;28;19920;-48
2023/07/23 06:22:09;;;;;;;;;;;15.80;99.90;;;;;;5050309;28;19978;-48
2023/07/23 06:24:34;;;;;;;;;;;15.90;99.90;;;;;;5049923;28;19924;-48
2023/07/23 06:27:00;;;;;;;;;;;15.90;99.90;;;;;;5049937;28;20245;-50
2023/07/23 06:29:26;;;;;;;;;;;16.00;99.90;;;;;;5049818;28;19928;-48
2023/07/23 06:31:52;;;;;;;;;;;16.00;99.90;;;;;;5054321;28;20281;-50
2023/07/23 06:34:19;;;;;;;;;;;16.00;99.90;;;;;;5049335;28;19921;-50
2023/07/23 06:36:45;;;;;;;;;;;16.00;99.90;;;;;;5049922;28;19939;-49
2023/07/23 06:39:11;;;;;;;;;;;16.10;99.90;;;;;;5050199;28;20146;-49
2023/07/23 06:41:36;;;;;;;;;;;16.10;99.90;;;;;;5049596;28;19928;-50
2023/07/23 06:44:02;;;;;;;;;;;16.10;99.90;;;;;;5051932;28;19916;-50
2023/07/23 06:46:27;;;;;;;;;;;16.10;99.90;;;;;;5044282;28;20004;-49
2023/07/23 06:48:53;;;;;;;;;;;16.10;99.90;;;;;;5049336;28;19921;-50
2023/07/23 06:51:18;;;;;;;;;;;16.20;99.90;;;;;;5054020;28;20381;-48
2023/07/23 06:53:44;;;;;;;;;;;16.30;99.90;;;;;;5053746;28;19962;-48
2023/07/23 06:56:10;;;;;;;;;;;16.30;99.90;;;;;;5053407;28;20408;-49
2023/07/23 06:58:36;;;;;;;;;;;16.30;99.90;;;;;;5053608;28;20016;-48
2023/07/23 07:01:02;;;;;;;;;;;16.30;99.90;;;;;;5053581;28;19959;-47
2023/07/23 07:03:28;;;;;;;;;;;16.40;99.90;;;;;;5053327;28;20372;-50
2023/07/23 07:05:53;;;;;;;;;;;16.40;99.90;;;;;;5042075;28;19939;-49
2023/07/23 07:08:19;;;;;;;;;;;16.40;99.90;;;;;;5044561;28;19986;-49
2023/07/23 07:10:46;;;;;;;;;;;16.40;99.90;;;;;;5038776;28;19972;-49
2023/07/23 07:13:12;;;;;;;;;;;16.40;99.90;;;;;;5052403;28;19970;-49
2023/07/23 07:15:37;;;;;;;;;;;16.40;99.90;;;;;;5052896;28;19921;-50
2023/07/23 07:18:03;;;;;;;;;;;16.40;99.90;;;;;;5051524;28;19927;-49
2023/07/23 07:20:28;;;;;;;;;;;16.40;99.90;;;;;;5053174;28;20355;-51
2023/07/23 07:22:54;;;;;;;;;;;16.40;99.90;;;;;;5051987;28;19923;-49
2023/07/23 07:25:19;;;;;;;;;;;16.40;99.90;;;;;;5052626;28;20103;-52
2023/07/23 07:27:45;;;;;;;;;;;16.40;99.90;;;;;;5052398;28;19917;-50
2023/07/23 07:30:10;;;;;;;;;;;16.40;99.90;;;;;;5052830;28;19928;-51
2023/07/23 07:32:36;;;;;;;;;;;16.40;99.90;;;;;;5064754;28;19917;-52
2023/07/23 07:35:02;;;;;;;;;;;16.40;99.90;;;;;;5052821;28;19916;-50
2023/07/23 07:37:27;;;;;;;;;;;16.40;99.90;;;;;;5053317;28;19928;-49
2023/07/23 07:39:53;;;;;;;;;;;16.40;99.90;;;;;;5052947;28;19917;-50
2023/07/23 07:42:18;;;;;;;;;;;16.40;99.90;;;;;;5052654;28;20516;-49
2023/07/23 07:44:44;;;;;;;;;;;16.40;99.90;;;;;;5051224;28;19917;-53
2023/07/23 07:47:10;;;;;;;;;;;16.40;99.90;;;;;;5052213;28;19924;-50
2023/07/23 07:49:35;;;;;;;;;;;16.30;99.90;;;;;;5052490;28;20361;-55
2023/07/23 07:52:01;;;;;;;;;;;16.30;99.90;;;;;;5052603;28;19932;-51
2023/07/23 07:54:27;;;;;;;;;;;16.30;99.90;;;;;;5052149;28;19943;-49
2023/07/23 07:56:53;;;;;;;;;;;16.20;99.90;;;;;;5051193;28;20317;-51
2023/07/23 07:59:19;;;;;;;;;;;16.20;99.90;;;;;;5040069;28;19917;-49
2023/07/23 08:01:45;;;;;;;;;;;16.20;99.90;;;;;;5051033;28;19923;-50
2023/07/23 08:04:10;;;;;;;;;;;16.10;99.90;;;;;;5040459;28;19971;-50
2023/07/23 08:06:37;;;;;;;;;;;16.10;99.90;;;;;;5047341;28;19916;-50
2023/07/23 08:09:03;;;;;;;;;;;16.10;99.90;;;;;;5051638;28;19972;-50
2023/07/23 08:11:29;;;;;;;;;;;16.00;99.90;;;;;;5042088;28;19964;-50
2023/07/23 08:13:55;;;;;;;;;;;16.00;99.90;;;;;;5045604;28;19939;-51
2023/07/23 08:16:20;;;;;;;;;;;15.90;99.90;;;;;;5042725;28;20324;-50
2023/07/23 08:18:46;;;;;;;;;;;15.90;99.90;;;;;;5037607;28;19916;-49
2023/07/23 08:21:12;;;;;;;;;;;15.90;99.90;;;;;;5049487;28;20007;-49
2023/07/23 08:23:37;;;;;;;;;;;15.80;99.90;;;;;;5050141;28;19935;-49
2023/07/23 08:26:04;;;;;;;;;;;15.80;99.90;;;;;;5050236;28;20003;-49
2023/07/23 08:28:33;;;;;;;;;;;15.70;99.90;;;;;;5057417;28;19939;-51
2023/07/23 08:31:00;;;;;;;;;;;15.80;99.90;;;;;;5047992;28;20381;-48
2023/07/23 08:33:28;;;;;;;;;;;15.80;99.90;;;;;;5050771;28;20001;-50
2023/07/23 08:35:53;;;;;;;;;;;15.80;99.90;;;;;;5044160;28;19917;-52
2023/07/23 08:38:19;;;;;;;;;;;15.80;99.90;;;;;;5051735;28;19923;-50
2023/07/23 08:40:45;;;;;;;;;;;15.80;99.90;;;;;;5048590;28;19927;-49
2023/07/23 08:43:29;;;;;;;;;;;15.80;99.90;;;;;;5047887;28;20381;-52
2023/07/23 08:46:13;;;;;;;;;;;15.80;99.90;;;;;;5046409;28;20393;-49
2023/07/23 08:48:54;;;;;;;;;;;15.80;99.90;;;;;;5045602;28;20084;-49
2023/07/23 08:51:20;;;;;;;;;;;15.80;99.90;;;;;;5046732;28;19990;-49
2023/07/23 08:53:46;;;;;;;;;;;15.80;99.90;;;;;;5045214;28;19959;-49
2023/07/23 08:56:12;;;;;;;;;;;15.90;99.90;;;;;;5051741;28;19970;-50
2023/07/23 08:58:38;;;;;;;;;;;15.80;99.90;;;;;;5051499;28;19916;-49
2023/07/23 09:01:04;;;;;;;;;;;15.90;99.90;;;;;;5051359;28;19920;-49
2023/07/23 09:03:31;;;;;;;;;;;15.80;99.90;;;;;;5051543;28;19916;-49
2023/07/23 09:05:56;;;;;;;;;;;15.80;99.90;;;;;;5050582;28;19920;-49
2023/07/23 09:08:22;;;;;;;;;;;15.80;99.90;;;;;;5050957;28;20067;-50
2023/07/23 09:10:47;;;;;;;;;;;15.70;99.90;;;;;;5048290;28;19928;-51
2023/07/23 09:13:16;;;;;;;;;;;15.70;99.90;;;;;;5047167;28;20421;-49
2023/07/23 09:15:42;;;;;;;;;;;15.70;99.90;;;;;;5042752;28;19917;-49
2023/07/23 09:18:08;;;;;;;;;;;15.70;99.90;;;;;;5051081;28;20419;-48
2023/07/23 09:20:33;;;;;;;;;;;15.70;99.90;;;;;;5051461;28;19917;-51
2023/07/23 09:23:06;;;;;;;;;;;15.70;99.90;;;;;;5046033;28;20282;-51
2023/07/23 09:25:32;;;;;;;;;;;15.70;99.90;;;;;;5042534;28;19921;-51
2023/07/23 09:27:57;;;;;;;;;;;15.70;99.90;;;;;;5047719;28;20328;-53
2023/07/23 09:30:24;;;;;;;;;;;15.70;99.90;;;;;;5045537;28;19921;-53
2023/07/23 09:32:57;;;;;;;;;;;15.80;99.90;;;;;;5042119;28;20478;-51
2023/07/23 09:35:23;;;;;;;;;;;15.80;99.90;;;;;;5041000;28;19917;-53
2023/07/23 09:37:55;;;;;;;;;;;15.80;99.90;;;;;;5050776;28;20294;-53
2023/07/23 09:40:20;;;;;;;;;;;15.80;99.90;;;;;;5047076;28;19939;-55
2023/07/23 09:42:46;;;;;;;;;;;15.80;99.90;;;;;;5059374;28;19935;-52
2023/07/23 09:45:12;;;;;;;;;;;15.80;99.90;;;;;;5050478;28;20073;-52
2023/07/23 09:47:38;;;;;;;;;;;15.80;99.90;;;;;;5050876;28;19920;-52
2023/07/23 09:50:04;;;;;;;;;;;15.90;99.90;;;;;;5050253;28;19928;-52
2023/07/23 09:52:34;;;;;;;;;;;15.90;99.90;;;;;;5053294;28;19927;-54
2023/07/23 09:55:01;;;;;;;;;;;16.00;99.90;;;;;;5062512;28;20317;-53
2023/07/23 09:57:28;;;;;;;;;;;16.00;99.90;;;;;;5050787;28;19995;-52
2023/07/23 09:59:55;;;;;;;;;;;16.10;99.90;;;;;;5047572;28;19916;-52
2023/07/23 10:02:21;;;;;;;;;;;16.10;99.90;;;;;;5038503;28;19916;-54
2023/07/23 10:04:47;;;;;;;;;;;16.10;99.90;;;;;;5043642;28;19932;-54
2023/07/23 10:07:13;;;;;;;;;;;16.10;99.90;;;;;;5050738;28;20369;-51
2023/07/23 10:09:38;;;;;;;;;;;16.10;99.90;;;;;;5045252;28;20413;-54
2023/07/23 10:12:04;;;;;;;;;;;16.10;99.90;;;;;;5036233;28;19960;-51
2023/07/23 10:14:30;;;;;;;;;;;16.10;99.90;;;;;;5046996;28;20313;-54
2023/07/23 10:16:57;;;;;;;;;;;16.10;99.90;;;;;;5047102;28;19962;-51
2023/07/23 10:19:22;;;;;;;;;;;16.10;99.90;;;;;;5047306;28;19921;-51
2023/07/23 10:21:49;;;;;;;;;;;16.00;99.90;;;;;;5047117;28;20011;-54
2023/07/23 10:24:15;;;;;;;;;;;16.10;99.90;;;;;;5048616;28;19916;-52
2023/07/23 10:26:41;;;;;;;;;;;16.00;99.90;;;;;;5048347;28;19924;-51
2023/07/23 10:29:06;;;;;;;;;;;16.10;99.90;;;;;;5049355;28;19917;-51
2023/07/23 10:31:32;;;;;;;;;;;16.10;99.90;;;;;;5042778;28;19921;-53
2023/07/23 10:33:58;;;;;;;;;;;16.10;99.90;;;;;;5048036;28;19920;-51
2023/07/23 10:36:23;;;;;;;;;;;16.10;99.90;;;;;;5050007;28;19950;-52
2023/07/23 10:39:04;;;;;;;;;;;16.20;99.90;;;;;;5050111;28;19924;-51
2023/07/23 10:41:55;;;;;;;;;;;16.20;99.90;;;;;;5049956;28;19982;-55
2023/07/23 10:44:22;;;;;;;;;;;16.20;99.90;;;;;;5047407;28;20397;-51
2023/07/23 10:46:47;;;;;;;;;;;16.20;99.90;;;;;;5050196;28;20279;-51
2023/07/23 10:49:18;;;;;;;;;;;16.30;99.90;;;;;;5050046;28;19927;-53
2023/07/23 10:51:45;;;;;;;;;;;16.30;99.90;;;;;;5050201;28;19987;-52
2023/07/23 10:54:11;;;;;;;;;;;16.30;99.90;;;;;;5045678;28;19917;-52
2023/07/23 10:56:40;;;;;;;;;;;16.30;99.90;;;;;;5049270;28;20415;-53
2023/07/23 10:59:06;;;;;;;;;;;16.30;99.90;;;;;;5050261;28;20282;-55
2023/07/23 11:01:35;;;;;;;;;;;16.30;99.90;;;;;;5050347;28;20399;-51
2023/07/23 11:04:06;;;;;;;;;;;16.40;99.90;;;;;;5050445;28;20013;-51
2023/07/23 11:06:32;;;;;;;;;;;16.40;99.90;;;;;;5049971;28;19916;-53
2023/07/23 11:09:01;;;;;;;;;;;16.40;99.90;;;;;;5048537;28;20393;-55
2023/07/23 11:11:28;;;;;;;;;;;16.40;99.90;;;;;;5041971;28;20023;-52
2023/07/23 11:13:54;;;;;;;;;;;16.40;99.90;;;;;;5039267;28;19917;-53
2023/07/23 11:16:19;;;;;;;;;;;16.40;99.90;;;;;;5034981;28;19917;-51
2023/07/23 11:18:46;;;;;;;;;;;16.40;99.90;;;;;;5046472;28;20031;-52
2023/07/23 11:21:14;;;;;;;;;;;16.50;99.90;;;;;;5037538;28;20425;-54
2023/07/23 11:23:39;;;;;;;;;;;16.50;99.90;;;;;;5039780;28;19924;-53
2023/07/23 11:26:05;;;;;;;;;;;16.50;99.90;;;;;;5034405;28;19921;-52
2023/07/23 11:28:32;;;;;;;;;;;16.50;99.90;;;;;;5033940;28;20390;-52
2023/07/23 11:30:58;;;;;;;;;;;16.50;99.90;;;;;;5043545;28;20345;-52
2023/07/23 11:33:29;;;;;;;;;;;16.60;99.90;;;;;;5036268;28;19917;-51
2023/07/23 11:35:54;;;;;;;;;;;16.60;99.90;;;;;;5040244;28;19971;-54
2023/07/23 11:38:20;;;;;;;;;;;16.60;99.90;;;;;;5045114;28;20344;-54
2023/07/23 11:40:59;;;;;;;;;;;16.60;99.90;;;;;;5058314;28;20290;-53
2023/07/23 11:43:25;;;;;;;;;;;16.70;99.90;;;;;;5045616;28;20358;-52
2023/07/23 11:45:51;;;;;;;;;;;16.70;99.90;;;;;;5055857;28;20003;-52
2023/07/23 11:48:21;;;;;;;;;;;16.70;99.90;;;;;;5040990;28;19917;-52
2023/07/23 11:50:47;;;;;;;;;;;16.70;99.90;;;;;;5044600;28;20003;-51
2023/07/23 11:53:13;;;;;;;;;;;16.70;99.90;;;;;;5047693;28;20382;-52
2023/07/23 11:55:39;;;;;;;;;;;16.70;99.90;;;;;;5044214;28;20012;-52
2023/07/23 11:58:04;;;;;;;;;;;16.70;99.90;;;;;;5046340;28;20007;-54
2023/07/23 12:00:35;;;;;;;;;;;16.80;99.90;;;;;;5034691;28;19917;-53
2023/07/23 12:03:05;;;;;;;;;;;16.80;99.90;;;;;;5033739;28;19963;-54
2023/07/23 12:05:30;;;;;;;;;;;16.80;99.90;;;;;;5035790;28;20608;-53
2023/07/23 12:07:56;;;;;;;;;;;16.80;99.90;;;;;;5037324;28;19955;-51
2023/07/23 12:10:24;;;;;;;;;;;16.80;99.90;;;;;;5052092;28;19929;-51
2023/07/23 12:12:50;;;;;;;;;;;16.80;99.90;;;;;;5044493;28;19917;-51
2023/07/23 12:15:16;;;;;;;;;;;16.90;99.90;;;;;;5044386;28;20451;-55
2023/07/23 12:17:42;;;;;;;;;;;16.80;99.90;;;;;;5049832;28;19958;-52
2023/07/23 12:20:14;;;;;;;;;;;16.80;99.90;;;;;;5041878;28;19924;-55
2023/07/23 12:22:54;;;;;;;;;;;16.80;99.90;;;;;;5047410;28;20003;-52
2023/07/23 12:25:20;;;;;;;;;;;16.80;99.90;;;;;;5044999;28;19917;-55
2023/07/23 12:27:46;;;;;;;;;;;16.80;99.90;;;;;;5052301;28;19923;-56
2023/07/23 12:30:12;;;;;;;;;;;16.80;99.90;;;;;;5044276;28;20007;-54
2023/07/23 12:32:37;;;;;;;;;;;16.80;99.90;;;;;;5051472;28;19999;-56
2023/07/23 12:35:03;;;;;;;;;;;16.90;99.90;;;;;;5051520;28;19917;-55
2023/07/23 12:37:30;;;;;;;;;;;16.90;99.90;;;;;;5042949;28;19924;-55
2023/07/23 12:39:56;;;;;;;;;;;16.90;99.90;;;;;;5046345;28;19917;-53
2023/07/23 12:42:22;;;;;;;;;;;17.00;99.90;;;;;;5040616;28;19942;-57
2023/07/23 12:44:47;;;;;;;;;;;17.10;99.90;;;;;;5042125;28;20397;-55
2023/07/23 12:47:13;;;;;;;;;;;17.10;99.90;;;;;;5041094;28;19960;-56
2023/07/23 12:49:39;;;;;;;;;;;17.10;99.90;;;;;;5035568;28;19924;-53
2023/07/23 12:52:04;;;;;;;;;;;17.20;99.90;;;;;;5045667;28;19994;-54
2023/07/23 12:54:30;;;;;;;;;;;17.20;99.90;;;;;;5047970;28;19920;-55
2023/07/23 12:56:56;;;;;;;;;;;17.30;99.90;;;;;;5040110;28;19971;-55
2023/07/23 12:59:24;;;;;;;;;;;17.40;99.90;;;;;;5047915;28;19959;-54
2023/07/23 13:01:50;;;;;;;;;;;17.60;99.90;;;;;;5043124;28;19966;-56
2023/07/23 13:04:15;;;;;;;;;;;17.70;99.90;;;;;;5042514;28;19999;-56
2023/07/23 13:06:41;;;;;;;;;;;17.80;99.90;;;;;;5046037;28;20434;-55
2023/07/23 13:09:06;;;;;;;;;;;18.00;99.90;;;;;;5041625;28;19917;-55
2023/07/23 13:11:32;;;;;;;;;;;18.30;99.90;;;;;;5042642;28;19942;-55
2023/07/23 13:13:57;;;;;;;;;;;18.40;99.90;;;;;;5048192;28;20326;-56
2023/07/23 13:16:23;;;;;;;;;;;18.40;99.90;;;;;;5042816;28;19916;-56
2023/07/23 13:18:48;;;;;;;;;;;18.50;99.90;;;;;;5039271;28;19975;-57
2023/07/23 13:21:14;;;;;;;;;;;18.50;99.90;;;;;;5039048;28;20275;-56
2023/07/23 13:23:39;;;;;;;;;;;18.50;99.90;;;;;;5043041;28;19917;-52
2023/07/23 13:26:05;;;;;;;;;;;18.50;99.90;;;;;;5038503;28;20362;-57
2023/07/23 13:28:30;;;;;;;;;;;18.50;99.90;;;;;;5036044;28;20030;-55
2023/07/23 13:30:57;;;;;;;;;;;18.60;99.90;;;;;;5030083;28;20004;-54
2023/07/23 13:33:23;;;;;;;;;;;18.70;99.90;;;;;;5038226;28;19925;-56
2023/07/23 13:35:50;;;;;;;;;;;18.90;99.90;;;;;;5046047;28;19924;-56
2023/07/23 13:38:15;;;;;;;;;;;19.00;99.90;;;;;;5052123;28;19959;-52
2023/07/23 13:40:41;;;;;;;;;;;19.00;99.90;;;;;;5048386;28;19994;-55
2023/07/23 13:43:06;;;;;;;;;;;19.10;99.90;;;;;;5037954;28;20416;-57
2023/07/23 13:45:32;;;;;;;;;;;19.10;99.90;;;;;;5039333;28;19920;-56
2023/07/23 13:47:57;;;;;;;;;;;19.20;99.90;;;;;;5048672;28;20455;-54
2023/07/23 13:50:23;;;;;;;;;;;19.10;99.90;;;;;;5050268;28;19921;-54
2023/07/23 13:52:48;;;;;;;;;;;19.20;99.90;;;;;;5044806;28;19955;-53
2023/07/23 13:55:14;;;;;;;;;;;19.20;99.90;;;;;;5040713;28;19921;-55
2023/07/23 13:57:40;;;;;;;;;;;19.20;99.90;;;;;;5041835;28;20184;-57
2023/07/23 14:00:06;;;;;;;;;;;19.20;99.90;;;;;;5038642;28;19966;-54
2023/07/23 14:02:32;;;;;;;;;;;19.20;99.90;;;;;;5042933;28;19917;-54
2023/07/23 14:04:57;;;;;;;;;;;19.20;99.90;;;;;;5049825;28;20282;-53
2023/07/23 14:07:23;;;;;;;;;;;19.20;99.90;;;;;;5049742;28;19962;-53
2023/07/23 14:09:48;;;;;;;;;;;19.30;99.90;;;;;;5050384;28;19927;-55